createdAt,value
2023-02-14T00:00:42.883Z,24.25
2023-02-14T00:03:09.548Z,27.85
2023-02-14T00:05:36.243Z,29.98
2023-02-14T00:08:02.905Z,27.30
2023-02-14T00:10:29.557Z,27.40
2023-02-14T00:12:56.078Z,30.13
2023-02-14T00:15:23.021Z,25.88
2023-02-14T00:17:55.261Z,25.25
2023-02-14T00:22:49.749Z,24.15
2023-02-14T00:25:16.696Z,25.00
2023-02-14T00:27:43.306Z,26.08
2023-02-14T00:30:12.812Z,23.45
2023-02-14T00:32:40.607Z,23.48
2023-02-14T00:35:09.276Z,23.63
2023-02-14T00:37:36.749Z,24.33
2023-02-14T00:40:05.209Z,25.92
2023-02-14T00:42:32.007Z,24.17
2023-02-14T00:44:58.555Z,23.83
2023-02-14T00:47:25.241Z,25.58
2023-02-14T00:49:51.910Z,24.20
2023-02-14T00:52:18.604Z,25.45
2023-02-14T00:54:45.194Z,26.85
2023-02-14T00:57:13.818Z,24.42
2023-02-14T00:59:40.383Z,27.52
2023-02-14T01:02:07.255Z,24.33
2023-02-14T01:04:34.454Z,26.17
2023-02-14T01:07:01.041Z,24.63
2023-02-14T01:09:27.730Z,26.00
2023-02-14T01:11:54.438Z,34.20
2023-02-14T01:14:21.008Z,31.52
2023-02-14T01:16:49.531Z,24.30
2023-02-14T01:19:16.722Z,24.90
2023-02-14T01:21:43.952Z,27.48
2023-02-14T01:24:12.064Z,22.80
2023-02-14T01:26:39.482Z,30.33
2023-02-14T01:29:06.488Z,24.73
2023-02-14T01:31:35.060Z,24.60
2023-02-14T01:34:02.684Z,25.42
2023-02-14T01:36:32.910Z,27.90
2023-02-14T01:39:02.486Z,27.42
2023-02-14T01:41:32.774Z,29.88
2023-02-14T01:44:06.531Z,26.30
2023-02-14T01:46:36.470Z,29.98
2023-02-14T01:49:21.949Z,33.08
2023-02-14T01:52:33.473Z,27.35
2023-02-14T01:55:05.202Z,30.35
2023-02-14T01:57:44.035Z,22.07
2023-02-14T02:00:29.969Z,31.92
2023-02-14T02:02:58.767Z,30.95
2023-02-14T02:05:26.102Z,30.50
2023-02-14T02:07:58.904Z,33.00
2023-02-14T02:10:27.854Z,29.90
2023-02-14T02:12:55.014Z,32.70
2023-02-14T02:15:24.326Z,28.83
2023-02-14T02:18:08.752Z,29.02
2023-02-14T02:20:44.087Z,30.25
2023-02-14T02:23:41.808Z,29.48
2023-02-14T02:26:43.501Z,26.88
2023-02-14T02:29:48.593Z,27.67
2023-02-14T02:32:42.885Z,28.48
2023-02-14T02:35:37.619Z,26.92
2023-02-14T02:38:33.692Z,26.48
2023-02-14T02:41:09.352Z,25.75
2023-02-14T02:43:36.945Z,25.58
2023-02-14T02:46:29.754Z,28.02
2023-02-14T02:49:04.650Z,25.00
2023-02-14T02:52:03.093Z,23.20
2023-02-14T02:54:37.738Z,24.77
2023-02-14T02:57:09.282Z,22.95
2023-02-14T02:59:41.800Z,23.98
2023-02-14T03:02:23.628Z,22.30
2023-02-14T03:04:59.870Z,21.75
2023-02-14T03:07:41.317Z,23.58
2023-02-14T03:10:16.162Z,24.40
2023-02-14T03:13:11.964Z,24.80
2023-02-14T03:15:53.773Z,24.35
2023-02-14T03:18:39.046Z,20.42
2023-02-14T03:21:42.720Z,24.30
2023-02-14T03:24:27.698Z,23.13
2023-02-14T03:27:22.999Z,26.10
2023-02-14T03:30:17.990Z,24.13
2023-02-14T03:33:01.650Z,25.08
2023-02-14T03:35:47.261Z,25.92
2023-02-14T03:38:26.029Z,25.90
2023-02-14T03:40:58.279Z,24.33
2023-02-14T03:43:35.613Z,26.05
2023-02-14T03:46:11.828Z,27.05
2023-02-14T03:48:41.347Z,29.23
2023-02-14T03:51:11.128Z,27.92
2023-02-14T03:53:43.779Z,30.48
2023-02-14T03:56:10.401Z,25.98
2023-02-14T03:58:43.662Z,27.88
2023-02-14T04:01:20.867Z,26.05
2023-02-14T04:03:48.853Z,26.60
2023-02-14T04:06:18.541Z,25.88
2023-02-14T04:08:45.205Z,27.20
2023-02-14T04:11:12.288Z,27.08
2023-02-14T04:13:39.476Z,26.17
2023-02-14T04:16:07.005Z,25.80
2023-02-14T04:18:52.349Z,25.30
2023-02-14T04:21:18.943Z,25.52
2023-02-14T04:23:45.450Z,27.10
2023-02-14T04:26:12.075Z,28.00
2023-02-14T04:28:39.737Z,26.50
2023-02-14T04:31:07.093Z,27.85
2023-02-14T04:33:34.201Z,26.58
2023-02-14T04:36:01.291Z,23.17
2023-02-14T04:38:28.030Z,24.17
2023-02-14T04:40:54.702Z,26.30
2023-02-14T04:43:21.240Z,25.83
2023-02-14T04:45:47.828Z,25.48
2023-02-14T04:48:14.485Z,23.70
2023-02-14T04:50:41.222Z,25.63
2023-02-14T04:53:07.761Z,25.63
2023-02-14T04:55:37.033Z,23.77
2023-02-14T04:58:03.590Z,23.10
2023-02-14T05:00:30.248Z,21.95
2023-02-14T05:02:56.802Z,24.85
2023-02-14T05:05:23.354Z,25.50
2023-02-14T05:07:49.899Z,24.10
2023-02-14T05:10:16.740Z,21.95
2023-02-14T05:12:43.644Z,21.27
2023-02-14T05:15:10.444Z,25.05
2023-02-14T05:17:37.289Z,21.40
2023-02-14T05:20:07.348Z,22.15
2023-02-14T05:22:33.901Z,19.88
2023-02-14T05:25:00.535Z,20.60
2023-02-14T05:27:27.178Z,21.77
2023-02-14T05:29:53.935Z,22.17
2023-02-14T05:32:21.197Z,20.90
2023-02-14T05:34:47.789Z,21.50
2023-02-14T05:37:14.399Z,20.88
2023-02-14T05:39:43.584Z,21.13
2023-02-14T05:42:10.164Z,20.90
2023-02-14T05:44:36.730Z,20.80
2023-02-14T05:47:03.502Z,20.20
2023-02-14T05:49:30.012Z,19.88
2023-02-14T05:51:56.682Z,22.77
2023-02-14T05:54:23.268Z,22.88
2023-02-14T05:56:49.880Z,23.77
2023-02-14T05:59:16.441Z,21.95
2023-02-14T06:01:43.109Z,23.65
2023-02-14T06:04:09.677Z,23.45
2023-02-14T06:06:36.904Z,23.70
2023-02-14T06:09:03.815Z,24.30
2023-02-14T06:11:30.441Z,23.70
2023-02-14T06:13:57.428Z,23.45
2023-02-14T06:16:24.112Z,24.10
2023-02-14T06:18:50.624Z,23.60
2023-02-14T06:21:17.226Z,24.33
2023-02-14T06:23:43.778Z,25.73
2023-02-14T06:26:10.453Z,26.02
2023-02-14T06:28:36.999Z,25.33
2023-02-14T06:31:04.179Z,24.52
2023-02-14T06:33:30.926Z,25.55
2023-02-14T06:35:57.534Z,25.20
2023-02-14T06:38:24.104Z,28.70
2023-02-14T06:40:50.773Z,29.60
2023-02-14T06:43:17.271Z,29.17
2023-02-14T06:45:43.988Z,33.45
2023-02-14T06:48:10.553Z,29.15
2023-02-14T06:50:37.317Z,28.73
2023-02-14T06:53:03.873Z,30.33
2023-02-14T06:55:30.472Z,32.45
2023-02-14T06:57:57.159Z,30.00
2023-02-14T07:00:23.833Z,30.92
2023-02-14T07:02:50.421Z,32.85
2023-02-14T07:05:18.941Z,35.70
2023-02-14T07:07:46.367Z,33.00
2023-02-14T07:10:13.827Z,33.83
2023-02-14T07:12:40.699Z,33.58
2023-02-14T07:15:09.479Z,33.80
2023-02-14T07:17:36.005Z,34.53
2023-02-14T07:20:04.053Z,35.03
2023-02-14T07:22:30.718Z,38.95
2023-02-14T07:24:57.453Z,35.90
2023-02-14T07:27:24.194Z,36.72
2023-02-14T07:29:50.972Z,38.88
2023-02-14T07:32:17.736Z,39.17
2023-02-14T07:34:44.542Z,39.67
2023-02-14T07:37:11.194Z,43.67
2023-02-14T07:39:37.822Z,37.70
2023-02-14T07:42:04.376Z,37.47
2023-02-14T07:44:32.214Z,36.03
2023-02-14T07:46:58.733Z,36.42
2023-02-14T07:49:25.384Z,38.00
2023-02-14T07:51:52.027Z,34.05
2023-02-14T07:54:20.269Z,33.70
2023-02-14T07:56:46.944Z,36.55
2023-02-14T07:59:13.558Z,34.53
2023-02-14T08:01:40.258Z,36.08
2023-02-14T08:04:07.139Z,35.80
2023-02-14T08:06:33.919Z,34.47
2023-02-14T08:09:01.669Z,35.15
2023-02-14T08:11:46.964Z,33.58
2023-02-14T08:14:13.736Z,33.22
2023-02-14T08:16:40.364Z,32.80
2023-02-14T08:19:06.994Z,31.58
2023-02-14T08:21:33.928Z,34.15
2023-02-14T08:24:00.824Z,34.28
2023-02-14T08:26:27.530Z,32.85
2023-02-14T08:28:56.664Z,34.92
2023-02-14T08:31:35.699Z,33.30
2023-02-14T08:34:04.535Z,30.70
2023-02-14T08:36:31.106Z,38.80
2023-02-14T08:38:57.851Z,31.85
2023-02-14T08:41:24.573Z,32.10
2023-02-14T08:43:51.319Z,29.90
2023-02-14T08:46:18.107Z,32.15
2023-02-14T08:48:44.778Z,31.92
2023-02-14T08:51:17.137Z,31.95
2023-02-14T08:53:44.396Z,31.92
2023-02-14T08:56:17.242Z,29.88
2023-02-14T08:58:43.911Z,32.03
2023-02-14T09:01:17.951Z,28.55
2023-02-14T09:03:45.118Z,30.65
2023-02-14T09:06:16.886Z,29.08
2023-02-14T09:08:44.860Z,27.95
2023-02-14T09:11:14.621Z,29.02
2023-02-14T09:13:42.610Z,26.70
2023-02-14T09:16:11.764Z,22.67
2023-02-14T09:18:38.935Z,24.95
2023-02-14T09:21:14.726Z,25.98
2023-02-14T09:23:41.934Z,23.85
2023-02-14T09:26:11.152Z,22.45
2023-02-14T09:28:38.635Z,20.25
2023-02-14T09:31:13.577Z,22.42
2023-02-14T09:33:41.351Z,21.70
2023-02-14T09:36:26.901Z,20.33
2023-02-14T09:38:55.703Z,20.58
2023-02-14T09:41:31.203Z,21.65
2023-02-14T09:44:04.584Z,19.58
2023-02-14T09:46:42.325Z,20.27
2023-02-14T09:49:15.915Z,18.38
2023-02-14T09:51:48.627Z,20.58
2023-02-14T09:54:22.093Z,20.02
2023-02-14T09:56:55.825Z,15.85
2023-02-14T09:59:31.320Z,16.77
2023-02-14T10:02:03.896Z,17.52
2023-02-14T10:05:08.949Z,17.42
2023-02-14T10:08:06.902Z,16.48
2023-02-14T10:10:39.645Z,17.42
2023-02-14T10:13:29.782Z,15.52
2023-02-14T10:16:03.500Z,15.38
2023-02-14T10:18:46.436Z,24.70
2023-02-14T10:21:23.466Z,16.40
2023-02-14T10:23:57.652Z,12.85
2023-02-14T10:26:32.665Z,11.98
2023-02-14T10:28:59.262Z,13.05
2023-02-14T10:31:25.864Z,11.38
2023-02-14T10:34:00.844Z,11.48
2023-02-14T10:36:36.558Z,12.15
2023-02-14T10:39:40.671Z,12.88
2023-02-14T10:42:25.161Z,14.65
2023-02-14T10:45:03.736Z,11.60
2023-02-14T10:48:08.273Z,11.07
2023-02-14T10:50:46.855Z,10.02
2023-02-14T10:53:28.018Z,11.35
2023-02-14T10:56:01.283Z,10.73
2023-02-14T10:58:32.447Z,11.77
2023-02-14T11:01:05.550Z,15.47
2023-02-14T11:03:34.865Z,12.68
2023-02-14T11:06:01.413Z,12.45
2023-02-14T11:08:35.089Z,13.25
2023-02-14T11:11:07.482Z,10.55
2023-02-14T11:13:37.160Z,11.48
2023-02-14T11:16:39.926Z,11.95
2023-02-14T11:21:47.712Z,8.43
2023-02-14T11:24:31.943Z,10.15
2023-02-14T11:27:10.773Z,11.02
2023-02-14T11:29:43.536Z,13.20
2023-02-14T11:32:20.417Z,14.00
2023-02-14T11:35:00.482Z,13.18
2023-02-14T11:37:28.742Z,13.15
2023-02-14T11:39:58.342Z,14.00
2023-02-14T11:42:40.539Z,11.88
2023-02-14T11:45:08.695Z,12.85
2023-02-14T11:47:42.901Z,11.73
2023-02-14T11:50:24.617Z,11.75
2023-02-14T11:52:54.707Z,12.40
2023-02-14T11:55:35.878Z,10.85
2023-02-14T11:58:05.755Z,12.35
2023-02-14T12:00:33.761Z,10.75
2023-02-14T12:03:04.717Z,11.55
2023-02-14T12:05:35.353Z,11.65
2023-02-14T12:08:05.243Z,12.85
2023-02-14T12:10:33.759Z,13.43
2023-02-14T12:13:04.498Z,14.55
2023-02-14T12:15:42.451Z,12.68
2023-02-14T12:18:09.167Z,13.88
2023-02-14T12:20:44.115Z,13.18
2023-02-14T12:23:33.646Z,14.93
2023-02-14T12:26:13.413Z,12.98
2023-02-14T12:28:50.822Z,13.82
2023-02-14T12:31:18.678Z,13.82
2023-02-14T12:33:46.865Z,12.02
2023-02-14T12:36:47.158Z,14.48
2023-02-14T12:39:32.502Z,13.95
2023-02-14T12:42:00.168Z,11.57
2023-02-14T12:45:02.167Z,13.80
2023-02-14T12:47:31.625Z,12.45
2023-02-14T12:50:17.696Z,13.57
2023-02-14T12:52:56.712Z,13.55
2023-02-14T12:55:29.190Z,13.75
2023-02-14T12:58:19.863Z,15.30
2023-02-14T13:00:56.866Z,15.40
2023-02-14T13:04:01.344Z,15.65
2023-02-14T13:06:35.448Z,13.32
2023-02-14T13:09:17.185Z,13.50
2023-02-14T13:11:52.978Z,11.02
2023-02-14T13:14:36.337Z,11.77
2023-02-14T13:17:21.674Z,14.60
2023-02-14T13:20:00.387Z,13.60
2023-02-14T13:22:30.103Z,15.85
2023-02-14T13:25:31.679Z,15.05
2023-02-14T13:28:01.763Z,16.88
2023-02-14T13:30:32.415Z,17.38
2023-02-14T13:33:06.705Z,17.73
2023-02-14T13:35:37.237Z,14.55
2023-02-14T13:38:08.401Z,15.88
2023-02-14T13:40:36.473Z,14.55
2023-02-14T13:43:03.919Z,13.80
2023-02-14T13:45:32.699Z,13.27
2023-02-14T13:48:10.943Z,12.93
2023-02-14T13:50:54.574Z,16.83
2023-02-14T13:53:40.508Z,15.20
2023-02-14T13:56:31.054Z,17.90
2023-02-14T13:59:00.468Z,16.02
2023-02-14T14:01:35.722Z,18.70
2023-02-14T14:04:23.491Z,17.50
2023-02-14T14:07:13.712Z,17.45
2023-02-14T14:09:40.261Z,17.83
2023-02-14T14:12:26.705Z,16.88
2023-02-14T14:15:05.720Z,21.55
2023-02-14T14:17:33.618Z,22.33
2023-02-14T14:20:02.388Z,20.45
2023-02-14T14:22:29.435Z,21.60
2023-02-14T14:25:05.718Z,20.90
2023-02-14T14:27:35.861Z,24.35
2023-02-14T14:30:07.630Z,23.52
2023-02-14T14:32:38.382Z,22.65
2023-02-14T14:35:25.529Z,22.92
2023-02-14T14:37:57.743Z,21.77
2023-02-14T14:40:32.194Z,19.95
2023-02-14T14:43:09.788Z,19.50
2023-02-14T14:45:36.510Z,22.63
2023-02-14T14:48:10.056Z,18.95
2023-02-14T14:50:36.980Z,18.27
2023-02-14T14:53:09.716Z,19.70
2023-02-14T14:55:38.101Z,19.20
2023-02-14T14:58:09.083Z,17.88
2023-02-14T15:00:38.525Z,16.80
2023-02-14T15:03:11.849Z,16.83
2023-02-14T15:05:42.507Z,17.15
2023-02-14T15:08:21.585Z,19.58
2023-02-14T15:10:55.720Z,19.58
2023-02-14T15:13:57.446Z,17.45
2023-02-14T15:16:28.662Z,17.77
2023-02-14T15:19:10.527Z,17.58
2023-02-14T15:21:40.291Z,16.45
2023-02-14T15:24:13.385Z,16.67
2023-02-14T15:26:44.366Z,18.08
2023-02-14T15:29:22.388Z,18.10
2023-02-14T15:31:49.981Z,15.38
2023-02-14T15:34:24.423Z,18.67
2023-02-14T15:36:54.004Z,20.85
2023-02-14T15:39:25.796Z,20.77
2023-02-14T15:41:54.002Z,20.92
2023-02-14T15:44:23.143Z,18.92
2023-02-14T15:46:55.965Z,18.33
2023-02-14T15:49:30.099Z,20.30
2023-02-14T15:51:57.022Z,18.48
2023-02-14T15:54:45.723Z,20.08
2023-02-14T15:57:23.947Z,17.73
2023-02-14T15:59:51.201Z,17.50
2023-02-14T16:02:37.838Z,19.13
2023-02-14T16:05:17.787Z,16.80
2023-02-14T16:08:22.502Z,18.42
2023-02-14T16:11:02.657Z,17.27
2023-02-14T16:13:42.014Z,15.20
2023-02-14T16:16:11.224Z,17.38
2023-02-14T16:18:43.707Z,17.88
2023-02-14T16:21:12.321Z,18.30
2023-02-14T16:23:39.231Z,18.67
2023-02-14T16:26:06.951Z,17.60
2023-02-14T16:28:36.797Z,16.05
2023-02-14T16:31:10.229Z,16.27
2023-02-14T16:33:39.516Z,17.25
2023-02-14T16:36:27.844Z,17.42
2023-02-14T16:38:58.140Z,19.55
2023-02-14T16:41:27.678Z,20.75
2023-02-14T16:43:55.189Z,19.65
2023-02-14T16:46:25.603Z,17.63
2023-02-14T16:48:52.866Z,19.88
2023-02-14T16:51:25.326Z,20.83
2023-02-14T16:53:52.581Z,19.38
2023-02-14T16:56:46.601Z,20.35
2023-02-14T16:59:13.276Z,21.42
2023-02-14T17:01:40.968Z,18.30
2023-02-14T17:04:07.785Z,20.17
2023-02-14T17:06:40.029Z,21.08
2023-02-14T17:09:11.555Z,21.63
2023-02-14T17:11:48.255Z,18.03
2023-02-14T17:14:19.773Z,24.02
2023-02-14T17:16:49.300Z,23.30
2023-02-14T17:19:17.813Z,22.25
2023-02-14T17:21:44.643Z,19.88
2023-02-14T17:24:11.310Z,22.58
2023-02-14T17:26:38.157Z,21.58
2023-02-14T17:29:06.776Z,21.58
2023-02-14T17:31:34.578Z,21.77
2023-02-14T17:34:01.348Z,23.60
2023-02-14T17:36:28.245Z,23.63
2023-02-14T17:38:57.570Z,26.00
2023-02-14T17:41:26.546Z,29.63
2023-02-14T17:44:00.178Z,26.33
2023-02-14T17:46:28.808Z,23.83
2023-02-14T17:48:56.624Z,27.42
2023-02-14T17:51:24.261Z,30.08
2023-02-14T17:53:51.419Z,31.92
2023-02-14T17:56:21.943Z,27.98
2023-02-14T17:58:51.317Z,26.77
2023-02-14T18:01:25.363Z,26.38
2023-02-14T18:03:53.808Z,29.65
2023-02-14T18:06:21.273Z,32.25
2023-02-14T18:08:49.915Z,28.77
2023-02-14T18:11:18.815Z,30.20
2023-02-14T18:13:46.478Z,33.95
2023-02-14T18:16:18.602Z,33.65
2023-02-14T18:18:51.047Z,32.22
2023-02-14T18:21:21.077Z,31.23
2023-02-14T18:23:48.360Z,34.67
2023-02-14T18:26:16.396Z,32.75
2023-02-14T18:28:43.104Z,34.97
2023-02-14T18:31:12.716Z,35.03
2023-02-14T18:33:39.882Z,33.00
2023-02-14T18:36:12.605Z,32.35
2023-02-14T18:38:41.067Z,32.60
2023-02-14T18:41:10.234Z,32.60
2023-02-14T18:43:37.393Z,34.10
2023-02-14T18:46:05.420Z,34.20
2023-02-14T18:48:32.776Z,34.63
2023-02-14T18:51:37.280Z,35.05
2023-02-14T18:54:05.729Z,33.25
2023-02-14T18:56:38.491Z,34.30
2023-02-14T18:59:08.222Z,33.80
2023-02-14T19:01:38.483Z,34.33
2023-02-14T19:04:08.668Z,36.10
2023-02-14T19:06:36.189Z,37.33
2023-02-14T19:09:07.780Z,34.50
2023-02-14T19:11:38.677Z,23.40
2023-02-14T19:14:12.607Z,33.33
2023-02-14T19:16:43.879Z,32.88
2023-02-14T19:19:11.337Z,31.43
2023-02-14T19:21:38.538Z,31.50
2023-02-14T19:24:07.147Z,33.42
2023-02-14T19:26:39.922Z,29.95
2023-02-14T19:29:12.300Z,28.98
2023-02-14T19:34:14.728Z,27.45
2023-02-14T19:36:41.467Z,25.38
2023-02-14T19:39:08.361Z,28.98
2023-02-14T19:41:39.677Z,28.60
2023-02-14T19:44:09.099Z,27.98
2023-02-14T19:46:40.166Z,27.63
2023-02-14T19:49:08.034Z,34.97
2023-02-14T19:51:36.104Z,32.17
2023-02-14T19:54:12.798Z,32.83
2023-02-14T19:56:42.671Z,35.45
2023-02-14T19:59:10.503Z,35.40
2023-02-14T20:01:46.712Z,35.70
2023-02-14T20:04:20.258Z,34.28
2023-02-14T20:06:49.270Z,31.90
2023-02-14T20:09:19.888Z,32.97
2023-02-14T20:11:52.011Z,35.28
2023-02-14T20:17:12.190Z,29.50
2023-02-14T20:19:39.088Z,31.00
2023-02-14T20:22:08.245Z,29.40
2023-02-14T20:24:38.239Z,32.88
2023-02-14T20:27:08.186Z,31.45
2023-02-14T20:29:36.110Z,32.03
2023-02-14T20:32:05.009Z,33.65
2023-02-14T20:34:31.735Z,32.45
2023-02-14T20:37:01.918Z,33.55
2023-02-14T20:39:34.935Z,34.25
2023-02-14T20:42:08.413Z,34.83
2023-02-14T20:44:35.476Z,35.95
2023-02-14T20:47:08.038Z,34.80
2023-02-14T20:49:37.839Z,34.88
2023-02-14T20:52:07.270Z,36.97
2023-02-14T20:54:34.016Z,36.42
2023-02-14T20:57:00.607Z,31.55
2023-02-14T20:59:28.632Z,30.58
2023-02-14T21:01:59.569Z,31.83
2023-02-14T21:04:27.035Z,33.17
2023-02-14T21:06:55.191Z,32.22
2023-02-14T21:09:24.824Z,30.20
2023-02-14T21:11:54.128Z,38.28
2023-02-14T21:14:21.331Z,40.00
2023-02-14T21:16:48.337Z,32.63
2023-02-14T21:19:18.578Z,28.70
2023-02-14T21:21:45.917Z,26.83
2023-02-14T21:24:14.773Z,31.92
2023-02-14T21:26:42.406Z,26.23
2023-02-14T21:29:09.481Z,28.70
2023-02-14T21:31:37.810Z,29.10
2023-02-14T21:34:05.026Z,27.88
2023-02-14T21:36:35.595Z,29.63
2023-02-14T21:39:04.457Z,29.10
2023-02-14T21:41:31.731Z,32.88
2023-02-14T21:44:00.052Z,28.73
2023-02-14T21:46:31.864Z,30.50
2023-02-14T21:49:20.263Z,32.58
2023-02-14T21:51:47.516Z,30.10
2023-02-14T21:54:14.295Z,27.05
2023-02-14T21:56:41.580Z,29.05
2023-02-14T21:59:09.634Z,43.78
2023-02-14T22:01:37.732Z,43.45
2023-02-14T22:04:09.545Z,42.70
2023-02-14T22:06:38.759Z,39.17
2023-02-14T22:09:05.904Z,42.60
2023-02-14T22:11:32.829Z,38.63
2023-02-14T22:14:00.274Z,37.22
2023-02-14T22:16:27.075Z,39.50
2023-02-14T22:18:53.662Z,56.95
2023-02-14T22:21:23.571Z,32.42
2023-02-14T22:23:50.808Z,43.55
2023-02-14T22:26:18.760Z,60.20
2023-02-14T22:28:48.141Z,52.92
2023-02-14T22:31:16.253Z,62.97
2023-02-14T22:33:43.599Z,52.90
2023-02-14T22:36:12.516Z,48.85
2023-02-14T22:38:39.311Z,54.80
2023-02-14T22:41:20.608Z,63.53
2023-02-14T22:43:47.885Z,45.78
2023-02-14T22:46:17.439Z,41.47
2023-02-14T22:48:44.203Z,43.70
2023-02-14T22:51:28.784Z,41.83
2023-02-14T22:53:58.522Z,41.72
2023-02-14T22:56:31.077Z,38.58
2023-02-14T22:59:00.019Z,35.97
2023-02-14T23:01:27.103Z,35.65
2023-02-14T23:03:58.485Z,37.25
2023-02-14T23:06:27.408Z,42.90
2023-02-14T23:08:55.151Z,33.90
2023-02-14T23:11:28.173Z,34.33
2023-02-14T23:14:14.481Z,37.63
2023-02-14T23:17:00.992Z,38.53
2023-02-14T23:19:49.893Z,34.20
2023-02-14T23:22:22.410Z,42.83
2023-02-14T23:24:50.960Z,53.78
2023-02-14T23:27:20.122Z,51.13
2023-02-14T23:29:46.875Z,54.08
2023-02-14T23:32:14.115Z,53.08
2023-02-14T23:34:45.930Z,56.42
2023-02-14T23:37:13.990Z,60.88
2023-02-14T23:39:41.521Z,60.30
2023-02-14T23:42:11.031Z,62.42
2023-02-14T23:44:37.986Z,61.47
2023-02-14T23:47:07.156Z,59.63
2023-02-14T23:49:35.616Z,61.53
2023-02-14T23:52:02.569Z,47.75
2023-02-14T23:54:29.142Z,48.65
2023-02-14T23:56:57.433Z,46.90
2023-02-14T23:59:24.373Z,34.70
